Time;durP1;ratioP1;P1;durP2;ratioP2;P2;SDS_P1;SDS_P2;PMS_P1;PMS_P2;Temp;Humidity;BMP_temperature;BMP_pressure;BME280_temperature;BME280_humidity;BME280_pressure;Samples;Min_cycle;Max_cycle;Signal;HPM_P1;HPM_P2
2021/07/22 00:01:01;;;;;;;5.60;4.80;;;20.40;94.30;;;;;;5095535;28;20476;-75
2021/07/22 00:03:28;;;;;;;6.73;5.20;;;20.40;94.60;;;;;;5095642;28;20769;-73
2021/07/22 00:05:54;;;;;;;5.03;4.47;;;20.30;94.90;;;;;;5095528;28;20472;-73
2021/07/22 00:08:22;;;;;;;7.37;5.30;;;20.20;95.40;;;;;;5090054;28;20447;-73
2021/07/22 00:10:49;;;;;;;6.73;5.30;;;20.30;95.40;;;;;;5094158;28;20556;-73
2021/07/22 00:13:16;;;;;;;6.50;5.20;;;20.30;95.50;;;;;;5095119;28;20480;-74
2021/07/22 00:15:43;;;;;;;6.33;4.83;;;20.30;95.50;;;;;;5095415;28;20495;-74
2021/07/22 00:18:10;;;;;;;7.47;5.90;;;20.20;95.40;;;;;;5095384;28;20914;-74
2021/07/22 00:20:36;;;;;;;7.70;6.20;;;20.10;95.60;;;;;;5094963;28;20470;-74
2021/07/22 00:23:03;;;;;;;8.10;6.00;;;20.00;95.80;;;;;;5095057;28;20447;-74
2021/07/22 00:25:31;;;;;;;6.40;5.30;;;20.00;96.00;;;;;;5094899;28;20533;-74
2021/07/22 00:27:58;;;;;;;6.23;5.43;;;20.00;96.50;;;;;;5094937;28;20446;-74
2021/07/22 00:30:25;;;;;;;8.43;5.60;;;20.00;96.30;;;;;;5094742;28;20472;-74
2021/07/22 00:32:56;;;;;;;5.37;4.87;;;20.00;96.00;;;;;;5095085;28;20478;-74
2021/07/22 00:35:23;;;;;;;7.28;5.55;;;20.00;96.50;;;;;;5094751;28;20449;-74
2021/07/22 00:37:50;;;;;;;6.90;5.63;;;20.00;96.70;;;;;;5095089;28;20204;-74
2021/07/22 00:40:17;;;;;;;7.50;5.70;;;19.90;97.20;;;;;;5094628;28;20466;-74
2021/07/22 00:42:59;;;;;;;6.40;5.30;;;19.90;97.10;;;;;;5094930;28;20525;-74
2021/07/22 00:45:27;;;;;;;7.80;5.40;;;19.90;97.40;;;;;;5095094;28;20449;-74
2021/07/22 00:47:54;;;;;;;6.60;5.20;;;19.80;97.80;;;;;;5094481;28;20535;-74
2021/07/22 00:50:22;;;;;;;6.47;5.27;;;19.80;97.80;;;;;;5094412;28;20548;-74
2021/07/22 00:52:48;;;;;;;7.43;5.97;;;19.80;98.30;;;;;;5094551;28;20478;-74
2021/07/22 00:55:18;;;;;;;7.00;5.80;;;19.80;98.20;;;;;;5094143;28;20532;-74
2021/07/22 00:57:45;;;;;;;7.57;6.57;;;19.80;98.40;;;;;;5094408;28;20442;-74
2021/07/22 01:00:14;;;;;;;11.00;6.37;;;19.80;98.30;;;;;;5094310;28;20479;-73
2021/07/22 01:02:41;;;;;;;7.27;6.20;;;19.70;98.40;;;;;;5094328;28;20523;-74
2021/07/22 01:05:09;;;;;;;8.63;5.40;;;19.70;98.40;;;;;;5094358;28;20446;-74
2021/07/22 01:07:36;;;;;;;9.03;5.93;;;19.60;98.60;;;;;;5094630;28;20210;-74
2021/07/22 01:10:04;;;;;;;7.55;6.43;;;19.60;99.00;;;;;;5094367;28;20439;-73
2021/07/22 01:12:30;;;;;;;7.13;6.18;;;19.60;99.20;;;;;;5094464;28;20218;-74
2021/07/22 01:14:57;;;;;;;11.27;6.53;;;19.50;99.50;;;;;;5094031;28;20208;-75
2021/07/22 01:17:35;;;;;;;7.65;6.65;;;19.40;99.60;;;;;;5094150;28;20290;-74
2021/07/22 01:20:02;;;;;;;7.80;5.80;;;19.50;99.90;;;;;;5094115;28;20215;-73
2021/07/22 01:22:31;;;;;;;5.80;5.15;;;19.50;99.90;;;;;;5094165;28;20231;-74
2021/07/22 01:24:57;;;;;;;6.47;5.70;;;19.40;99.90;;;;;;5094323;28;20206;-74
2021/07/22 01:27:24;;;;;;;7.00;6.30;;;19.40;99.90;;;;;;5094625;28;20646;-74
2021/07/22 01:29:51;;;;;;;7.65;5.72;;;19.40;99.90;;;;;;5093575;28;20210;-73
2021/07/22 01:32:18;;;;;;;7.50;5.80;;;19.30;99.90;;;;;;5093746;28;20214;-74
2021/07/22 01:34:45;;;;;;;5.95;5.22;;;19.40;99.90;;;;;;5094061;28;20209;-74
2021/07/22 01:37:12;;;;;;;7.13;6.00;;;19.30;99.90;;;;;;5094160;28;20571;-74
2021/07/22 01:39:40;;;;;;;10.20;6.27;;;19.30;99.90;;;;;;5094129;28;20231;-74
2021/07/22 01:42:07;;;;;;;8.50;6.45;;;19.20;99.90;;;;;;5093127;28;20551;-74
2021/07/22 01:44:34;;;;;;;6.60;5.80;;;19.20;99.90;;;;;;5093858;28;20301;-74
2021/07/22 01:47:03;;;;;;;7.55;6.45;;;19.20;99.90;;;;;;5093899;28;20209;-74
2021/07/22 01:49:30;;;;;;;6.30;5.55;;;19.20;99.90;;;;;;5093932;28;20201;-74
2021/07/22 01:51:56;;;;;;;7.50;5.47;;;19.20;99.90;;;;;;5093708;28;20538;-74
2021/07/22 01:54:23;;;;;;;7.72;6.25;;;19.20;99.90;;;;;;5094009;28;20198;-74
2021/07/22 01:56:51;;;;;;;7.53;5.80;;;19.10;99.90;;;;;;5093698;28;20306;-74
2021/07/22 01:59:18;;;;;;;7.45;6.00;;;19.10;99.90;;;;;;5093697;28;20209;-74
2021/07/22 02:01:45;;;;;;;8.75;6.72;;;19.10;99.90;;;;;;5093459;28;20313;-74
2021/07/22 02:04:12;;;;;;;8.25;5.93;;;19.10;99.90;;;;;;5093849;28;20198;-74
2021/07/22 02:06:39;;;;;;;8.48;6.35;;;19.00;99.90;;;;;;5093903;28;20201;-74
2021/07/22 02:09:06;;;;;;;8.55;5.85;;;19.00;99.90;;;;;;5095724;28;20293;-74
2021/07/22 02:11:33;;;;;;;7.88;6.40;;;18.90;99.90;;;;;;5097443;28;20221;-74
2021/07/22 02:14:01;;;;;;;8.57;6.55;;;18.90;99.90;;;;;;5097666;28;20198;-74
2021/07/22 02:16:28;;;;;;;7.35;6.60;;;18.80;99.90;;;;;;5097589;28;20209;-74
2021/07/22 02:18:55;;;;;;;8.07;6.28;;;18.90;99.90;;;;;;5097670;28;20744;-74
2021/07/22 02:21:22;;;;;;;10.00;6.57;;;18.80;99.90;;;;;;5097018;28;20308;-74
2021/07/22 02:23:49;;;;;;;8.00;6.20;;;18.80;99.90;;;;;;5097336;28;20198;-74
2021/07/22 02:26:16;;;;;;;8.95;6.63;;;18.70;99.90;;;;;;5097418;28;20285;-74
2021/07/22 02:28:42;;;;;;;10.35;6.55;;;18.70;99.90;;;;;;5097140;28;20206;-74
2021/07/22 02:31:10;;;;;;;8.68;6.47;;;18.70;99.90;;;;;;5096859;28;20230;-74
2021/07/22 02:33:37;;;;;;;7.05;6.28;;;18.70;99.90;;;;;;5097726;28;20232;-74
2021/07/22 02:36:04;;;;;;;7.78;6.20;;;18.70;99.90;;;;;;5097514;28;20297;-74
2021/07/22 02:38:31;;;;;;;7.70;6.90;;;18.70;99.90;;;;;;5097122;28;20567;-74
2021/07/22 02:40:58;;;;;;;8.77;7.20;;;18.70;99.90;;;;;;5097353;28;20313;-73
2021/07/22 02:43:25;;;;;;;9.95;7.70;;;18.70;99.90;;;;;;5097055;28;20198;-74
2021/07/22 02:45:51;;;;;;;9.13;6.90;;;18.60;99.90;;;;;;5097206;28;20288;-74
2021/07/22 02:48:20;;;;;;;8.15;6.40;;;18.60;99.90;;;;;;5097206;28;20233;-74
2021/07/22 02:50:46;;;;;;;7.00;6.18;;;18.60;99.90;;;;;;5096787;28;20552;-74
2021/07/22 02:53:13;;;;;;;9.18;7.30;;;18.60;99.90;;;;;;5096718;28;20222;-74
2021/07/22 02:55:40;;;;;;;10.38;6.32;;;18.50;99.90;;;;;;5096897;28;20202;-74
2021/07/22 02:58:07;;;;;;;7.07;6.07;;;18.50;99.90;;;;;;5096793;28;20287;-74
2021/07/22 03:00:34;;;;;;;8.43;6.43;;;18.50;99.90;;;;;;5096478;28;20224;-74
2021/07/22 03:03:02;;;;;;;8.18;6.78;;;18.50;99.90;;;;;;5096336;28;20198;-74
2021/07/22 03:05:30;;;;;;;8.73;6.57;;;18.40;99.90;;;;;;5096753;28;20209;-74
2021/07/22 03:08:01;;;;;;;7.55;6.00;;;18.30;99.90;;;;;;5096390;28;20209;-73
2021/07/22 03:10:28;;;;;;;9.52;6.53;;;18.30;99.90;;;;;;5096099;28;20340;-74
2021/07/22 03:12:55;;;;;;;9.23;6.82;;;18.30;99.90;;;;;;5096298;28;20245;-74
2021/07/22 03:15:21;;;;;;;9.85;6.97;;;18.40;99.90;;;;;;5096440;28;20228;-74
2021/07/22 03:17:48;;;;;;;7.70;5.85;;;18.30;99.90;;;;;;5095969;28;20203;-74
2021/07/22 03:20:15;;;;;;;8.75;6.80;;;18.30;99.90;;;;;;5095158;28;20790;-73
2021/07/22 03:22:43;;;;;;;7.60;5.95;;;18.40;99.90;;;;;;5096536;28;20551;-74
2021/07/22 03:25:11;;;;;;;6.60;5.57;;;18.40;99.90;;;;;;5096323;28;20202;-74
2021/07/22 03:27:39;;;;;;;7.45;5.72;;;18.40;99.90;;;;;;5096326;28;20198;-74
2021/07/22 03:30:07;;;;;;;8.48;7.00;;;18.40;99.90;;;;;;5095466;28;20221;-73
2021/07/22 03:32:35;;;;;;;7.80;6.35;;;18.40;99.90;;;;;;5095756;28;20692;-74
2021/07/22 03:35:02;;;;;;;8.07;6.43;;;18.30;99.90;;;;;;5096357;28;20292;-74
2021/07/22 03:37:30;;;;;;;8.85;6.30;;;18.30;99.90;;;;;;5095940;28;20716;-74
2021/07/22 03:39:59;;;;;;;8.70;6.50;;;18.30;99.90;;;;;;5095895;28;20206;-73
2021/07/22 03:42:27;;;;;;;7.25;6.13;;;18.30;99.90;;;;;;5096501;28;20613;-74
2021/07/22 03:44:54;;;;;;;7.68;5.60;;;18.20;99.90;;;;;;5095916;28;20234;-74
2021/07/22 03:47:21;;;;;;;9.85;6.90;;;18.20;99.90;;;;;;5095829;28;20289;-74
2021/07/22 03:49:48;;;;;;;9.60;6.78;;;18.20;99.90;;;;;;5095782;28;20256;-74
2021/07/22 03:52:17;;;;;;;9.40;7.22;;;18.20;99.90;;;;;;5095489;28;20230;-74
2021/07/22 03:54:44;;;;;;;9.50;7.63;;;18.10;99.90;;;;;;5096083;28;20210;-74
2021/07/22 03:57:12;;;;;;;8.50;6.72;;;18.10;99.90;;;;;;5095452;28;20297;-74
2021/07/22 03:59:39;;;;;;;8.02;6.38;;;18.10;99.90;;;;;;5095242;28;20209;-74
2021/07/22 04:02:06;;;;;;;7.13;6.43;;;18.10;99.90;;;;;;5095503;28;20222;-74
2021/07/22 04:04:33;;;;;;;8.20;7.00;;;18.10;99.90;;;;;;5095629;28;20299;-74
2021/07/22 04:07:00;;;;;;;9.60;6.80;;;18.10;99.90;;;;;;5095692;28;20288;-74
2021/07/22 04:09:27;;;;;;;8.00;6.47;;;18.20;99.90;;;;;;5095706;28;20571;-74
2021/07/22 04:11:54;;;;;;;7.90;6.38;;;18.20;99.90;;;;;;5094677;28;20226;-73
2021/07/22 04:14:22;;;;;;;7.45;6.07;;;18.30;99.90;;;;;;5095203;28;20309;-74
2021/07/22 04:16:49;;;;;;;9.60;6.47;;;18.30;99.90;;;;;;5095328;28;20296;-74
2021/07/22 04:19:16;;;;;;;7.82;5.95;;;18.30;99.90;;;;;;5095351;28;20620;-74
2021/07/22 04:21:43;;;;;;;7.63;6.78;;;18.30;99.90;;;;;;5095348;28;20312;-74
2021/07/22 04:24:09;;;;;;;7.07;6.20;;;18.30;99.90;;;;;;5095381;28;20199;-74
2021/07/22 04:26:36;;;;;;;8.80;7.10;;;18.30;99.90;;;;;;5094650;28;20660;-74
2021/07/22 04:29:03;;;;;;;7.95;6.90;;;18.30;99.90;;;;;;5094884;28;20206;-74
2021/07/22 04:31:31;;;;;;;8.52;6.10;;;18.30;99.90;;;;;;5093923;28;20257;-73
2021/07/22 04:33:58;;;;;;;8.05;6.15;;;18.30;99.90;;;;;;5095002;28;20226;-74
2021/07/22 04:36:25;;;;;;;9.05;7.35;;;18.30;99.90;;;;;;5095146;28;20202;-74
2021/07/22 04:38:51;;;;;;;10.25;7.45;;;18.30;99.90;;;;;;5095095;28;20293;-74
2021/07/22 04:41:18;;;;;;;8.80;7.22;;;18.30;99.90;;;;;;5094525;28;20233;-73
2021/07/22 04:43:45;;;;;;;11.40;7.30;;;18.30;99.90;;;;;;5094763;28;20202;-74
2021/07/22 04:46:12;;;;;;;10.65;7.10;;;18.20;99.90;;;;;;5094807;28;20601;-74
2021/07/22 04:48:40;;;;;;;9.23;6.75;;;18.20;99.90;;;;;;5094792;28;20293;-74
2021/07/22 04:51:07;;;;;;;8.55;7.45;;;18.20;99.90;;;;;;5094179;28;20226;-74
2021/07/22 04:53:34;;;;;;;11.38;7.35;;;18.30;99.90;;;;;;5095094;28;20320;-74
2021/07/22 04:56:01;;;;;;;9.35;6.88;;;18.40;99.90;;;;;;5094462;28;20206;-74
2021/07/22 04:58:28;;;;;;;8.45;6.80;;;18.40;99.90;;;;;;5094336;28;20618;-74
2021/07/22 05:00:55;;;;;;;8.90;7.38;;;18.40;99.90;;;;;;5093885;28;20265;-74
2021/07/22 05:03:22;;;;;;;11.35;8.27;;;18.40;99.90;;;;;;5094555;28;20743;-74
2021/07/22 05:05:50;;;;;;;10.13;8.13;;;18.40;99.90;;;;;;5094636;28;20609;-74
2021/07/22 05:08:17;;;;;;;9.60;7.93;;;18.40;99.90;;;;;;5093987;28;20628;-74
2021/07/22 05:10:44;;;;;;;9.40;7.53;;;18.50;99.90;;;;;;5094164;28;20224;-74
2021/07/22 05:13:12;;;;;;;13.07;8.18;;;18.40;99.90;;;;;;5094027;28;20308;-74
2021/07/22 05:15:38;;;;;;;11.50;8.18;;;18.40;99.90;;;;;;5094676;28;20206;-74
2021/07/22 05:18:05;;;;;;;9.15;7.90;;;18.30;99.90;;;;;;5094347;28;20208;-74
2021/07/22 05:20:32;;;;;;;11.30;8.00;;;18.30;99.90;;;;;;5094006;28;20309;-73
2021/07/22 05:23:01;;;;;;;11.80;8.43;;;18.20;99.90;;;;;;5093957;28;20200;-74
2021/07/22 05:25:28;;;;;;;8.95;7.85;;;18.10;99.90;;;;;;5094068;28;20325;-74
2021/07/22 05:27:55;;;;;;;10.18;7.80;;;17.90;99.90;;;;;;5093890;28;20294;-74
2021/07/22 05:30:22;;;;;;;10.52;7.68;;;17.90;99.90;;;;;;5093631;28;20234;-73
2021/07/22 05:32:48;;;;;;;10.80;8.13;;;17.80;99.90;;;;;;5094451;28;20559;-74
2021/07/22 05:35:15;;;;;;;9.38;7.25;;;17.90;99.90;;;;;;5094260;28;20204;-74
2021/07/22 05:37:42;;;;;;;10.30;7.47;;;18.00;99.90;;;;;;5093849;28;20732;-74
2021/07/22 05:40:11;;;;;;;10.80;8.02;;;18.00;99.90;;;;;;5093563;28;20297;-73
2021/07/22 05:42:38;;;;;;;10.05;7.28;;;18.10;99.90;;;;;;5093910;28;20289;-74
2021/07/22 05:45:06;;;;;;;15.85;8.60;;;18.10;99.90;;;;;;5094096;28;20611;-74
2021/07/22 05:47:33;;;;;;;11.20;9.10;;;18.10;99.90;;;;;;5094039;28;20294;-73
2021/07/22 05:50:00;;;;;;;12.55;8.00;;;18.30;99.90;;;;;;5093181;28;20207;-73
2021/07/22 05:52:26;;;;;;;10.15;8.00;;;18.40;99.90;;;;;;5093801;28;20229;-74
2021/07/22 05:54:53;;;;;;;11.95;8.98;;;18.40;99.90;;;;;;5093652;28;20232;-74
2021/07/22 05:57:21;;;;;;;11.70;7.90;;;18.30;99.90;;;;;;5093897;28;20198;-74
2021/07/22 05:59:48;;;;;;;11.93;8.35;;;18.30;99.90;;;;;;5093821;28;20198;-74
2021/07/22 06:02:15;;;;;;;10.80;8.10;;;18.30;99.90;;;;;;5093776;28;20714;-73
2021/07/22 06:04:42;;;;;;;12.25;8.23;;;18.30;99.90;;;;;;5093595;28;20206;-74
2021/07/22 06:07:08;;;;;;;14.10;10.02;;;18.30;99.90;;;;;;5093745;28;20234;-74
2021/07/22 06:09:35;;;;;;;10.70;8.77;;;18.30;99.90;;;;;;5093724;28;20202;-73
2021/07/22 06:12:02;;;;;;;12.70;9.07;;;18.20;99.90;;;;;;5093432;28;20763;-74
2021/07/22 06:14:30;;;;;;;11.98;9.40;;;18.40;99.90;;;;;;5093720;28;20317;-74
2021/07/22 06:16:57;;;;;;;12.38;9.00;;;18.40;99.90;;;;;;5093838;28;20206;-74
2021/07/22 06:19:24;;;;;;;12.55;8.60;;;18.50;99.90;;;;;;5093261;28;20293;-74
2021/07/22 06:21:51;;;;;;;9.63;7.80;;;18.50;99.90;;;;;;5093453;28;20248;-73
2021/07/22 06:24:17;;;;;;;9.50;8.50;;;18.50;99.90;;;;;;5093631;28;20289;-74
2021/07/22 06:26:44;;;;;;;12.85;9.27;;;18.50;99.90;;;;;;5093602;28;20656;-74
2021/07/22 06:29:11;;;;;;;14.15;9.20;;;18.40;99.90;;;;;;5093406;28;20206;-74
2021/07/22 06:31:39;;;;;;;11.68;8.52;;;18.40;99.90;;;;;;5092939;28;20226;-73
2021/07/22 06:34:06;;;;;;;16.52;8.43;;;18.60;99.90;;;;;;5093276;28;20580;-74
2021/07/22 06:36:33;;;;;;;11.90;9.00;;;18.70;99.90;;;;;;5093230;28;20245;-74
2021/07/22 06:38:59;;;;;;;11.05;8.48;;;18.80;99.90;;;;;;5093483;28;20289;-74
2021/07/22 06:41:26;;;;;;;12.98;8.63;;;19.00;99.90;;;;;;5092789;28;20222;-74
2021/07/22 06:43:53;;;;;;;11.40;8.63;;;19.00;99.90;;;;;;5093866;28;20608;-74
2021/07/22 06:46:20;;;;;;;11.00;8.30;;;19.00;99.90;;;;;;5093148;28;20206;-73
2021/07/22 06:48:49;;;;;;;12.80;8.13;;;19.10;99.90;;;;;;5093064;28;20203;-74
2021/07/22 06:51:16;;;;;;;10.73;7.95;;;19.30;99.90;;;;;;5093275;28;20633;-74
2021/07/22 06:53:43;;;;;;;9.50;7.77;;;19.50;99.90;;;;;;5093454;28;20218;-74
2021/07/22 06:56:10;;;;;;;12.60;9.63;;;19.50;99.90;;;;;;5097102;28;20440;-74
2021/07/22 06:58:36;;;;;;;12.98;9.82;;;19.40;99.90;;;;;;5097153;28;20242;-74
2021/07/22 07:01:05;;;;;;;13.85;9.57;;;19.40;99.90;;;;;;5096619;28;20624;-73
2021/07/22 07:03:32;;;;;;;13.53;9.10;;;19.50;99.90;;;;;;5096752;28;20234;-74
2021/07/22 07:06:00;;;;;;;11.70;9.47;;;19.60;99.90;;;;;;5096644;28;21006;-74
2021/07/22 07:08:27;;;;;;;12.27;9.87;;;19.80;99.90;;;;;;5096845;28;20441;-75
2021/07/22 07:10:53;;;;;;;12.70;9.47;;;20.00;99.90;;;;;;5096276;28;20498;-74
2021/07/22 07:13:20;;;;;;;13.80;9.80;;;20.20;99.90;;;;;;5096370;28;20528;-75
2021/07/22 07:15:47;;;;;;;13.10;8.80;;;20.40;99.90;;;;;;5086383;28;20463;-75
2021/07/22 07:18:14;;;;;;;11.93;8.80;;;20.60;99.90;;;;;;5075365;28;20446;-75
2021/07/22 07:20:40;;;;;;;11.70;9.33;;;20.80;99.90;;;;;;5074965;28;20472;-74
2021/07/22 07:23:09;;;;;;;12.07;9.13;;;20.70;99.90;;;;;;5074784;28;20526;-76
2021/07/22 07:25:37;;;;;;;10.63;9.20;;;20.90;99.90;;;;;;5075557;28;20448;-75
2021/07/22 07:28:04;;;;;;;11.83;8.40;;;21.10;99.90;;;;;;5077270;28;20482;-77
2021/07/22 07:30:30;;;;;;;10.13;9.00;;;21.60;99.90;;;;;;5076569;28;20486;-77
2021/07/22 07:32:57;;;;;;;12.70;10.33;;;21.80;99.90;;;;;;5076614;28;20538;-77
2021/07/22 07:35:26;;;;;;;15.20;10.60;;;22.10;99.90;;;;;;5076824;28;20922;-75
2021/07/22 07:37:52;;;;;;;12.23;9.63;;;22.00;99.90;;;;;;5074769;28;20456;-74
2021/07/22 07:40:21;;;;;;;14.30;11.37;;;22.10;99.90;;;;;;5074057;28;20633;-74
2021/07/22 07:42:49;;;;;;;14.27;9.53;;;22.00;99.90;;;;;;5074354;28;20535;-72
2021/07/22 07:45:15;;;;;;;14.30;9.90;;;21.90;99.90;;;;;;5074756;28;20452;-73
2021/07/22 07:47:42;;;;;;;12.50;10.07;;;21.70;99.90;;;;;;5074298;28;20540;-73
2021/07/22 07:50:10;;;;;;;12.93;10.60;;;21.80;99.90;;;;;;5073978;28;21064;-73
2021/07/22 07:52:39;;;;;;;11.50;9.40;;;22.30;99.90;;;;;;5074217;28;20448;-74
2021/07/22 07:55:07;;;;;;;11.37;9.60;;;22.70;99.90;;;;;;5074497;28;20575;-74
2021/07/22 07:57:36;;;;;;;13.50;10.03;;;23.20;99.90;;;;;;5074353;28;20448;-74
2021/07/22 08:00:03;;;;;;;12.30;9.83;;;24.10;97.80;;;;;;5074035;28;20498;-74
2021/07/22 08:02:30;;;;;;;10.90;8.67;;;24.80;96.20;;;;;;5074267;28;20992;-73
2021/07/22 08:04:57;;;;;;;10.63;8.90;;;25.40;94.50;;;;;;5073932;28;21002;-73
2021/07/22 08:07:24;;;;;;;9.43;7.93;;;25.60;93.90;;;;;;5074463;28;20866;-75
2021/07/22 08:09:51;;;;;;;9.67;8.20;;;26.00;93.80;;;;;;5075128;28;20503;-75
2021/07/22 08:12:18;;;;;;;12.23;8.80;;;25.80;93.00;;;;;;5075069;28;20460;-75
2021/07/22 08:14:47;;;;;;;10.23;8.00;;;25.50;93.50;;;;;;5074858;28;20484;-75
2021/07/22 08:17:15;;;;;;;9.00;8.10;;;25.70;92.50;;;;;;5075180;28;20437;-75
2021/07/22 08:19:42;;;;;;;9.07;7.30;;;26.40;90.60;;;;;;5075043;28;20452;-75
2021/07/22 08:22:11;;;;;;;9.57;7.87;;;27.00;88.70;;;;;;5074702;28;20491;-76
2021/07/22 08:24:38;;;;;;;8.67;7.20;;;27.30;87.40;;;;;;5074933;28;20445;-75
2021/07/22 08:27:06;;;;;;;8.67;7.77;;;27.90;85.50;;;;;;5074788;28;20451;-76
2021/07/22 08:29:33;;;;;;;8.87;7.30;;;28.10;80.30;;;;;;5074501;28;20479;-75
2021/07/22 08:32:01;;;;;;;7.80;6.67;;;28.10;76.60;;;;;;5075235;28;20564;-76
2021/07/22 08:34:28;;;;;;;8.90;6.73;;;28.60;81.50;;;;;;5074439;28;20477;-75
2021/07/22 08:36:54;;;;;;;7.77;6.80;;;29.20;75.80;;;;;;5074675;28;20448;-75
2021/07/22 08:39:21;;;;;;;7.00;6.30;;;30.10;70.00;;;;;;5074707;28;20997;-75
2021/07/22 08:41:48;;;;;;;8.83;6.80;;;30.60;68.00;;;;;;5074644;28;20469;-75
2021/07/22 08:44:15;;;;;;;7.40;6.70;;;30.70;65.80;;;;;;5074639;28;20442;-75
2021/07/22 08:46:45;;;;;;;9.07;7.93;;;30.60;63.30;;;;;;5074647;28;20930;-75
2021/07/22 08:49:13;;;;;;;7.00;6.30;;;30.50;64.20;;;;;;5074591;28;20439;-75
2021/07/22 08:51:39;;;;;;;8.30;7.27;;;32.00;61.30;;;;;;5074282;28;20559;-75
2021/07/22 08:54:07;;;;;;;7.57;6.90;;;32.60;58.90;;;;;;5074354;28;20487;-75
2021/07/22 08:56:34;;;;;;;7.87;7.17;;;32.40;57.30;;;;;;5074479;28;20528;-75
2021/07/22 08:59:02;;;;;;;8.10;7.30;;;32.00;56.50;;;;;;5074070;28;20530;-75
2021/07/22 09:01:34;;;;;;;7.00;6.30;;;32.00;57.30;;;;;;5073689;28;20465;-75
2021/07/22 09:04:01;;;;;;;7.43;6.73;;;31.90;57.30;;;;;;5074164;28;20448;-75
2021/07/22 09:06:29;;;;;;;6.60;6.00;;;32.80;56.40;;;;;;5074193;28;20444;-75
2021/07/22 09:08:56;;;;;;;7.10;6.40;;;32.60;55.60;;;;;;5074239;28;20437;-75
2021/07/22 09:11:22;;;;;;;7.30;6.70;;;33.50;55.40;;;;;;5073416;28;20465;-75
2021/07/22 09:14:10;;;;;;;7.10;6.40;;;34.70;53.00;;;;;;5074561;28;20528;-75
2021/07/22 09:16:38;;;;;;;7.30;6.20;;;34.60;49.90;;;;;;5073203;28;20495;-75
2021/07/22 09:19:05;;;;;;;8.20;7.10;;;34.60;49.30;;;;;;5074041;28;20765;-75
2021/07/22 09:21:33;;;;;;;9.53;6.37;;;34.10;49.30;;;;;;5074061;28;20463;-75
2021/07/22 09:24:05;;;;;;;7.10;6.40;;;33.60;48.00;;;;;;5074143;28;20853;-75
2021/07/22 09:26:33;;;;;;;7.57;6.87;;;33.50;48.60;;;;;;5074067;28;20523;-75
2021/07/22 09:29:08;;;;;;;6.43;5.83;;;33.70;47.30;;;;;;5073588;28;20445;-75
2021/07/22 09:31:35;;;;;;;6.87;6.27;;;33.80;49.00;;;;;;5074147;28;20468;-75
2021/07/22 09:34:03;;;;;;;7.47;6.87;;;33.40;47.20;;;;;;5073882;28;20768;-75
2021/07/22 09:36:35;;;;;;;6.90;6.20;;;33.80;46.90;;;;;;5074095;28;20901;-75
2021/07/22 09:39:19;;;;;;;7.17;6.47;;;33.90;49.50;;;;;;5074048;28;20445;-75
2021/07/22 09:41:47;;;;;;;6.50;5.90;;;34.30;48.30;;;;;;5073383;28;20464;-75
2021/07/22 09:44:35;;;;;;;7.73;7.03;;;34.10;46.80;;;;;;5073911;28;20441;-75
2021/07/22 09:47:03;;;;;;;7.27;6.57;;;33.80;47.10;;;;;;5073682;28;20509;-75
2021/07/22 09:49:35;;;;;;;6.93;6.30;;;33.30;46.90;;;;;;5073880;28;20449;-75
2021/07/22 09:52:04;;;;;;;6.60;6.00;;;33.00;46.50;;;;;;5073577;28;20462;-75
2021/07/22 09:54:35;;;;;;;6.73;6.13;;;33.40;47.50;;;;;;5073476;28;21061;-75
2021/07/22 09:57:03;;;;;;;7.03;6.33;;;34.20;49.00;;;;;;5073783;28;20448;-75
2021/07/22 09:59:31;;;;;;;6.47;5.87;;;35.50;47.90;;;;;;5073587;28;20791;-75
2021/07/22 10:02:02;;;;;;;6.10;5.30;;;35.90;43.30;;;;;;5072972;28;20475;-75
2021/07/22 10:04:31;;;;;;;7.27;6.57;;;36.20;45.00;;;;;;5073525;28;20467;-75
2021/07/22 10:07:00;;;;;;;6.43;5.93;;;36.60;44.30;;;;;;5073574;28;20449;-75
2021/07/22 10:09:33;;;;;;;7.40;6.40;;;36.20;42.70;;;;;;5073646;28;20792;-75
2021/07/22 10:12:02;;;;;;;6.97;6.27;;;35.80;42.70;;;;;;5073845;28;20464;-75
2021/07/22 10:14:30;;;;;;;7.23;6.60;;;36.00;42.40;;;;;;5073189;28;20876;-75
2021/07/22 10:17:00;;;;;;;6.60;6.00;;;36.10;43.30;;;;;;5073352;28;20457;-75
2021/07/22 10:19:28;;;;;;;6.47;5.87;;;37.30;43.60;;;;;;5073464;28;20449;-75
2021/07/22 10:21:57;;;;;;;6.80;6.30;;;37.80;41.00;;;;;;5073174;28;20475;-75
2021/07/22 10:24:24;;;;;;;7.50;6.80;;;37.30;41.40;;;;;;5073454;28;20448;-75
2021/07/22 10:26:53;;;;;;;7.10;6.50;;;36.50;40.30;;;;;;5073540;28;20444;-75
2021/07/22 10:29:20;;;;;;;6.37;5.77;;;35.40;41.70;;;;;;5074179;28;20456;-75
2021/07/22 10:31:50;;;;;;;6.13;5.63;;;36.30;42.70;;;;;;5077036;28;20544;-75
2021/07/22 10:34:18;;;;;;;6.77;6.17;;;37.20;41.50;;;;;;5077070;28;20443;-76
2021/07/22 10:36:48;;;;;;;6.77;6.17;;;38.10;39.10;;;;;;5077152;28;20441;-76
2021/07/22 10:39:15;;;;;;;7.33;6.60;;;39.00;39.80;;;;;;5077214;28;20584;-76
2021/07/22 10:41:43;;;;;;;6.93;6.43;;;38.30;38.80;;;;;;5076617;28;20457;-76
2021/07/22 10:44:31;;;;;;;7.73;7.03;;;36.70;39.90;;;;;;5076611;28;20771;-75
2021/07/22 10:46:59;;;;;;;8.23;7.50;;;34.80;43.30;;;;;;5076999;28;20539;-75
2021/07/22 10:49:40;;;;;;;6.93;6.33;;;33.90;45.10;;;;;;5077029;28;20491;-75
2021/07/22 10:52:09;;;;;;;7.20;6.50;;;32.80;46.50;;;;;;5076101;28;21027;-75
2021/07/22 10:54:51;;;;;;;6.27;5.77;;;32.20;49.00;;;;;;5076535;28;20446;-75
2021/07/22 10:57:40;;;;;;;7.03;6.43;;;31.70;50.70;;;;;;5076624;28;20441;-75
2021/07/22 11:00:10;;;;;;;7.00;6.30;;;30.70;51.20;;;;;;5076622;28;20874;-75
2021/07/22 11:02:44;;;;;;;8.43;7.23;;;29.90;52.40;;;;;;5076346;28;20444;-75
2021/07/22 11:05:12;;;;;;;7.10;6.50;;;29.30;54.80;;;;;;5076551;28;20446;-74
2021/07/22 11:07:39;;;;;;;7.17;6.47;;;29.10;55.50;;;;;;5076407;28;20798;-74
2021/07/22 11:10:08;;;;;;;7.20;6.50;;;28.80;54.90;;;;;;5076151;28;21034;-74
2021/07/22 11:12:46;;;;;;;7.40;6.60;;;28.30;56.90;;;;;;5076888;28;20533;-74
2021/07/22 11:15:35;;;;;;;7.73;7.03;;;28.10;58.50;;;;;;5076160;28;20476;-74
2021/07/22 11:18:02;;;;;;;8.00;6.40;;;28.30;59.70;;;;;;5062882;28;20461;-74
2021/07/22 11:20:39;;;;;;;6.50;5.80;;;28.30;58.30;;;;;;5075942;28;20549;-74
2021/07/22 11:23:17;;;;;;;7.20;6.33;;;28.50;59.20;;;;;;5076036;28;20432;-74
2021/07/22 11:25:46;;;;;;;7.73;6.93;;;28.70;61.20;;;;;;5076029;28;20438;-74
2021/07/22 11:28:14;;;;;;;6.20;5.60;;;28.70;57.60;;;;;;5076030;28;20456;-74
2021/07/22 11:30:59;;;;;;;7.80;7.00;;;28.40;56.50;;;;;;5075499;28;20902;-74
2021/07/22 11:33:26;;;;;;;7.10;5.90;;;28.30;58.20;;;;;;5076514;28;20427;-75
2021/07/22 11:35:57;;;;;;;7.20;6.50;;;28.20;58.70;;;;;;5075463;28;20488;-74
2021/07/22 11:38:25;;;;;;;7.30;6.57;;;28.10;58.20;;;;;;5075857;28;20439;-74
2021/07/22 11:40:52;;;;;;;7.07;6.47;;;28.30;59.80;;;;;;5075102;28;20457;-74
2021/07/22 11:43:32;;;;;;;7.53;6.77;;;28.40;60.50;;;;;;5076203;28;20833;-74
2021/07/22 11:46:01;;;;;;;6.47;5.77;;;28.40;59.10;;;;;;5076086;28;20529;-74
2021/07/22 11:48:27;;;;;;;7.70;6.90;;;28.50;59.60;;;;;;5075620;28;20439;-74
2021/07/22 11:51:02;;;;;;;6.83;6.13;;;28.50;60.30;;;;;;5075537;28;20551;-74
2021/07/22 11:53:29;;;;;;;7.40;6.63;;;28.40;61.80;;;;;;5075600;28;20491;-74
2021/07/22 11:55:57;;;;;;;8.10;7.10;;;28.70;59.80;;;;;;5075784;28;20475;-74
2021/07/22 11:58:25;;;;;;;7.80;6.80;;;28.80;57.30;;;;;;5075280;28;20448;-74
2021/07/22 12:00:51;;;;;;;7.77;6.97;;;28.90;59.20;;;;;;5075223;28;20462;-74
2021/07/22 12:03:25;;;;;;;6.83;6.13;;;29.10;58.80;;;;;;5075367;28;20809;-74
2021/07/22 12:05:52;;;;;;;7.07;6.40;;;29.00;59.80;;;;;;5075432;28;20541;-74
2021/07/22 12:08:20;;;;;;;7.70;6.90;;;28.80;57.10;;;;;;5075465;28;20528;-74
2021/07/22 12:10:49;;;;;;;7.10;6.50;;;28.80;60.90;;;;;;5074949;28;20462;-74
2021/07/22 12:13:16;;;;;;;7.40;6.70;;;28.90;57.50;;;;;;5075017;28;20872;-74
2021/07/22 12:15:45;;;;;;;7.60;6.77;;;28.70;57.40;;;;;;5074989;28;20478;-74
2021/07/22 12:18:13;;;;;;;7.80;6.40;;;28.70;59.60;;;;;;5075124;28;20455;-74
2021/07/22 12:20:42;;;;;;;7.97;7.17;;;28.70;56.80;;;;;;5074554;28;20469;-74
2021/07/22 12:23:31;;;;;;;7.90;7.10;;;28.50;59.10;;;;;;5075235;28;20896;-74
2021/07/22 12:25:59;;;;;;;8.30;6.30;;;28.70;58.90;;;;;;5074567;28;20488;-74
2021/07/22 12:28:26;;;;;;;7.90;6.53;;;28.90;60.10;;;;;;5074455;28;20437;-75
2021/07/22 12:30:54;;;;;;;7.67;6.87;;;29.20;59.40;;;;;;5074362;28;20478;-74
2021/07/22 12:33:24;;;;;;;8.70;7.57;;;29.10;58.60;;;;;;5075178;28;20798;-74
2021/07/22 12:35:53;;;;;;;8.10;7.30;;;29.20;57.10;;;;;;5074909;28;20498;-74
2021/07/22 12:38:29;;;;;;;8.50;7.70;;;29.30;57.70;;;;;;5074196;28;20936;-74
2021/07/22 12:41:09;;;;;;;7.80;7.00;;;28.90;55.90;;;;;;5074186;28;20997;-74
2021/07/22 12:43:48;;;;;;;8.30;6.97;;;28.60;58.40;;;;;;5074616;28;20446;-74
2021/07/22 12:46:19;;;;;;;8.40;6.80;;;28.40;58.00;;;;;;5074841;28;20441;-74
2021/07/22 12:48:47;;;;;;;8.97;7.40;;;28.20;57.50;;;;;;5074293;28;20451;-74